createdAt,value
2022-11-25T00:00:35.843Z,94862
2022-11-25T00:04:01.119Z,94858
2022-11-25T00:07:26.381Z,94856
2022-11-25T00:10:51.655Z,94861
2022-11-25T00:14:16.977Z,94859
2022-11-25T00:17:42.179Z,94856
2022-11-25T00:21:07.461Z,94860
2022-11-25T00:24:32.871Z,94855
2022-11-25T00:27:57.976Z,94853
2022-11-25T00:31:23.345Z,94853
2022-11-25T00:34:48.461Z,94851
2022-11-25T00:38:13.676Z,94855
2022-11-25T00:41:38.929Z,94860
2022-11-25T00:45:04.175Z,94857
2022-11-25T00:48:29.464Z,94849
2022-11-25T00:51:54.677Z,94854
2022-11-25T00:55:19.922Z,94852
2022-11-25T00:58:45.127Z,94854
2022-11-25T01:02:10.403Z,94854
2022-11-25T01:05:35.577Z,94848
2022-11-25T01:09:00.811Z,94852
2022-11-25T01:12:26.054Z,94854
2022-11-25T01:15:51.316Z,94860
2022-11-25T01:19:16.536Z,94854
2022-11-25T01:22:41.835Z,94854
2022-11-25T01:26:07.058Z,94854
2022-11-25T01:29:32.314Z,94850
2022-11-25T01:32:57.573Z,94848
2022-11-25T01:36:22.797Z,94852
2022-11-25T01:39:48.151Z,94857
2022-11-25T01:43:13.359Z,94867
2022-11-25T01:46:38.652Z,94863
2022-11-25T01:50:03.897Z,94861
2022-11-25T01:53:29.146Z,94863
2022-11-25T01:56:54.418Z,94865
2022-11-25T02:00:19.596Z,94862
2022-11-25T02:03:44.811Z,94859
2022-11-25T02:07:10.116Z,94854
2022-11-25T02:10:35.264Z,94857
2022-11-25T02:14:00.549Z,94859
2022-11-25T02:17:25.756Z,94861
2022-11-25T02:20:51.013Z,94859
2022-11-25T02:24:16.216Z,94857
2022-11-25T02:27:41.471Z,94857
2022-11-25T02:31:06.738Z,94860
2022-11-25T02:34:31.989Z,94862
2022-11-25T02:37:57.237Z,94869
2022-11-25T02:41:22.438Z,94860
2022-11-25T02:44:47.651Z,94856
2022-11-25T02:48:12.895Z,94855
2022-11-25T02:51:38.166Z,94851
2022-11-25T02:55:03.481Z,94844
2022-11-25T02:58:28.762Z,94841
2022-11-25T03:01:54.044Z,94841
2022-11-25T03:05:19.251Z,94843
2022-11-25T03:08:44.467Z,94842
2022-11-25T03:12:09.740Z,94838
2022-11-25T03:15:35.002Z,94832
2022-11-25T03:19:00.225Z,94839
2022-11-25T03:22:25.469Z,94840
2022-11-25T03:25:50.727Z,94838
2022-11-25T03:29:15.983Z,94839
2022-11-25T03:32:41.174Z,94838
2022-11-25T03:36:06.487Z,94841
2022-11-25T03:39:31.791Z,94845
2022-11-25T03:42:56.995Z,94842
2022-11-25T03:46:22.252Z,94839
2022-11-25T03:49:47.435Z,94842
2022-11-25T03:53:12.647Z,94839
2022-11-25T03:56:37.884Z,94842
2022-11-25T04:00:03.135Z,94846
2022-11-25T04:03:28.408Z,94845
2022-11-25T04:06:53.644Z,94850
2022-11-25T04:10:18.902Z,94853
2022-11-25T04:13:44.169Z,94857
2022-11-25T04:17:09.413Z,94858
2022-11-25T04:20:34.581Z,94860
2022-11-25T04:23:59.897Z,94854
2022-11-25T04:27:25.119Z,94849
2022-11-25T04:30:50.467Z,94849
2022-11-25T04:34:15.648Z,94849
2022-11-25T04:37:40.922Z,94844
2022-11-25T04:41:06.157Z,94841
2022-11-25T04:44:31.371Z,94838
2022-11-25T04:47:56.590Z,94834
2022-11-25T04:51:21.804Z,94837
2022-11-25T04:54:47.060Z,94834
2022-11-25T04:58:12.368Z,94832
2022-11-25T05:01:37.677Z,94825
2022-11-25T05:05:02.828Z,94830
2022-11-25T05:08:28.042Z,94830
2022-11-25T05:11:53.318Z,94827
2022-11-25T05:15:18.540Z,94827
2022-11-25T05:18:43.815Z,94828
2022-11-25T05:22:09.124Z,94825
2022-11-25T05:25:34.311Z,94828
2022-11-25T05:28:59.532Z,94826
2022-11-25T05:32:24.730Z,94829
2022-11-25T05:35:49.939Z,94832
2022-11-25T05:39:15.169Z,94833
2022-11-25T05:42:40.357Z,94836
2022-11-25T05:46:05.607Z,94834
2022-11-25T05:49:30.804Z,94836
2022-11-25T05:52:56.140Z,94842
2022-11-25T05:56:21.403Z,94843
2022-11-25T05:59:46.585Z,94847
2022-11-25T06:03:11.977Z,94847
2022-11-25T06:06:37.037Z,94844
2022-11-25T06:10:03.390Z,94840
2022-11-25T06:13:27.512Z,94843
2022-11-25T06:16:52.760Z,94843
2022-11-25T06:20:17.976Z,94842
2022-11-25T06:23:43.200Z,94848
2022-11-25T06:27:08.399Z,94849
2022-11-25T06:30:33.632Z,94855
2022-11-25T06:33:58.819Z,94859
2022-11-25T06:37:24.015Z,94866
2022-11-25T06:40:49.253Z,94867
2022-11-25T06:44:14.516Z,94871
2022-11-25T06:47:39.824Z,94875
2022-11-25T06:51:05.000Z,94874
2022-11-25T06:54:30.228Z,94872
2022-11-25T06:58:08.336Z,94880
2022-11-25T07:01:20.747Z,94878
2022-11-25T07:04:45.977Z,94885
2022-11-25T07:08:11.178Z,94888
2022-11-25T07:11:36.374Z,94892
2022-11-25T07:15:01.712Z,94891
2022-11-25T07:18:26.958Z,94896
2022-11-25T07:21:52.170Z,94893
2022-11-25T07:25:17.422Z,94894
2022-11-25T07:28:42.672Z,94887
2022-11-25T07:32:10.654Z,94885
2022-11-25T07:35:33.188Z,94894
2022-11-25T07:38:58.489Z,94898
2022-11-25T07:42:23.715Z,94900
2022-11-25T07:45:49.005Z,94897
2022-11-25T07:49:14.276Z,94893
2022-11-25T07:52:39.586Z,94891
2022-11-25T07:56:04.866Z,94894
2022-11-25T07:59:30.114Z,94897
2022-11-25T08:02:55.411Z,94895
2022-11-25T08:06:20.566Z,94907
2022-11-25T08:09:45.807Z,94915
2022-11-25T08:13:11.089Z,94919
2022-11-25T08:16:36.307Z,94920
2022-11-25T08:20:01.548Z,94924
2022-11-25T08:23:26.795Z,94926
2022-11-25T08:26:51.998Z,94925
2022-11-25T08:30:17.252Z,94926
2022-11-25T08:33:42.427Z,94924
2022-11-25T08:37:07.632Z,94924
2022-11-25T08:40:32.845Z,94928
2022-11-25T08:43:58.054Z,94924
2022-11-25T08:47:23.327Z,94925
2022-11-25T08:50:48.533Z,94924
2022-11-25T08:54:13.763Z,94929
2022-11-25T08:57:39.061Z,94927
2022-11-25T09:01:04.185Z,94932
2022-11-25T09:04:29.444Z,94932
2022-11-25T09:07:54.737Z,94926
2022-11-25T09:11:19.947Z,94932
2022-11-25T09:14:45.105Z,94928
2022-11-25T09:18:10.333Z,94924
2022-11-25T09:21:35.581Z,94925
2022-11-25T09:25:00.788Z,94923
2022-11-25T09:28:26.011Z,94923
2022-11-25T09:31:54.624Z,94925
2022-11-25T09:35:16.461Z,94934
2022-11-25T09:38:43.370Z,94940
2022-11-25T09:42:06.888Z,94941
2022-11-25T09:45:32.113Z,94936
2022-11-25T09:48:57.342Z,94943
2022-11-25T09:52:22.541Z,94934
2022-11-25T09:55:47.792Z,94946
2022-11-25T09:59:12.976Z,94946
2022-11-25T10:02:38.270Z,94947
2022-11-25T10:06:03.480Z,94948
2022-11-25T10:09:28.652Z,94957
2022-11-25T10:12:53.905Z,94955
2022-11-25T10:16:19.141Z,94953
2022-11-25T10:19:44.331Z,94947
2022-11-25T10:23:09.561Z,94947
2022-11-25T10:26:34.771Z,94948
2022-11-25T10:30:00.000Z,94945
2022-11-25T10:33:25.256Z,94942
2022-11-25T10:36:50.482Z,94942
2022-11-25T10:40:15.719Z,94938
2022-11-25T10:43:43.434Z,94937
2022-11-25T10:47:13.792Z,94927
2022-11-25T10:50:33.862Z,94931
2022-11-25T10:53:59.112Z,94932
2022-11-25T10:57:24.348Z,94928
2022-11-25T11:00:49.579Z,94928
2022-11-25T11:04:14.812Z,94930
2022-11-25T11:07:40.115Z,94929
2022-11-25T11:11:05.202Z,94933
2022-11-25T11:14:30.455Z,94939
2022-11-25T11:17:55.658Z,94941
2022-11-25T11:21:20.940Z,94936
2022-11-25T11:24:46.082Z,94930
2022-11-25T11:28:11.335Z,94924
2022-11-25T11:31:36.594Z,94924
2022-11-25T11:35:01.774Z,94917
2022-11-25T11:38:27.049Z,94918
2022-11-25T11:41:52.247Z,94913
2022-11-25T11:45:17.472Z,94914
2022-11-25T11:48:42.684Z,94922
2022-11-25T11:52:07.879Z,94921
2022-11-25T11:55:33.130Z,94920
2022-11-25T11:58:58.315Z,94917
2022-11-25T12:02:23.652Z,94918
2022-11-25T12:05:48.717Z,94914
2022-11-25T12:09:13.924Z,94919
2022-11-25T12:12:39.190Z,94918
2022-11-25T12:16:04.398Z,94921
2022-11-25T12:19:29.563Z,94921
2022-11-25T12:22:54.784Z,94920
2022-11-25T12:26:19.998Z,94921
2022-11-25T12:29:45.248Z,94925
2022-11-25T12:33:10.506Z,94919
2022-11-25T12:36:35.755Z,94912
2022-11-25T12:40:01.011Z,94911
2022-11-25T12:43:26.257Z,94917
2022-11-25T12:46:51.509Z,94920
2022-11-25T12:50:16.722Z,94914
2022-11-25T12:53:41.944Z,94921
2022-11-25T12:57:07.206Z,94920
2022-11-25T13:00:41.369Z,94920
2022-11-25T13:03:57.726Z,94923
2022-11-25T13:07:22.968Z,94923
2022-11-25T13:10:48.200Z,94925
2022-11-25T13:14:13.796Z,94928
2022-11-25T13:17:38.750Z,94934
2022-11-25T13:21:03.929Z,94944
2022-11-25T13:24:29.143Z,94948
2022-11-25T13:27:54.377Z,94954
2022-11-25T13:31:19.654Z,94959
2022-11-25T13:34:44.826Z,94963
2022-11-25T13:38:10.119Z,94974
2022-11-25T13:41:35.551Z,94970
2022-11-25T13:45:00.544Z,94970
2022-11-25T13:48:25.819Z,94970
2022-11-25T13:51:51.058Z,94974
2022-11-25T13:55:16.334Z,94976
2022-11-25T13:58:41.553Z,94978
2022-11-25T14:02:06.888Z,94985
2022-11-25T14:05:32.064Z,94988
2022-11-25T14:08:57.339Z,94994
2022-11-25T14:12:22.598Z,94995
2022-11-25T14:15:47.810Z,95004
2022-11-25T14:22:38.319Z,95012
2022-11-25T14:26:06.067Z,95020
2022-11-25T14:29:28.828Z,95022
2022-11-25T15:06:02.903Z,95075
2022-11-25T15:09:28.142Z,95079
2022-11-25T15:12:53.838Z,95080
2022-11-25T15:16:18.698Z,95075
2022-11-25T15:19:43.826Z,95085
2022-11-25T15:23:09.135Z,95087
2022-11-25T15:26:34.318Z,95090
2022-11-25T15:29:59.589Z,95087
2022-11-25T15:33:24.828Z,95088
2022-11-25T15:36:54.153Z,95093
2022-11-25T15:40:15.312Z,95082
2022-11-25T15:43:40.496Z,95083
2022-11-25T15:47:05.729Z,95091
2022-11-25T15:50:30.960Z,95098
2022-11-25T15:53:56.198Z,95102
2022-11-25T15:57:21.457Z,95099
2022-11-25T16:00:46.677Z,95105
2022-11-25T16:04:11.907Z,95105
2022-11-25T16:07:37.190Z,95096
2022-11-25T16:11:02.390Z,95098
2022-11-25T16:14:27.658Z,95102
2022-11-25T16:17:52.860Z,95102
2022-11-25T16:21:18.087Z,95106
2022-11-25T16:24:43.363Z,95104
2022-11-25T16:28:08.613Z,95109
2022-11-25T16:31:33.916Z,95104
2022-11-25T16:34:59.061Z,95113
2022-11-25T16:38:24.275Z,95117
2022-11-25T16:41:49.516Z,95119
2022-11-25T16:45:14.791Z,95123
2022-11-25T16:48:40.077Z,95124
2022-11-25T16:52:05.286Z,95123
2022-11-25T16:55:30.536Z,95133
2022-11-25T16:58:55.794Z,95134
2022-11-25T17:02:21.189Z,95133
2022-11-25T17:05:46.296Z,95136
2022-11-25T17:09:11.520Z,95144
2022-11-25T17:12:36.751Z,95146
2022-11-25T17:16:02.130Z,95151
2022-11-25T17:19:27.332Z,95156
2022-11-25T17:22:52.598Z,95158
2022-11-25T17:26:17.794Z,95173
2022-11-25T17:29:43.368Z,95181
2022-11-25T17:33:08.244Z,95182
2022-11-25T17:36:33.499Z,95183
2022-11-25T17:39:58.767Z,95185
2022-11-25T17:43:23.976Z,95188
2022-11-25T17:46:49.207Z,95202
2022-11-25T17:50:14.505Z,95214
2022-11-25T17:53:39.920Z,95214
2022-11-25T17:57:05.067Z,95209
2022-11-25T18:00:30.365Z,95224
2022-11-25T18:03:55.593Z,95228
2022-11-25T18:07:20.869Z,95229
2022-11-25T18:10:46.128Z,95233
2022-11-25T18:14:11.385Z,95244
2022-11-25T18:17:36.703Z,95243
2022-11-25T18:21:01.847Z,95246
2022-11-25T18:24:27.094Z,95247
2022-11-25T18:27:52.315Z,95258
2022-11-25T18:31:17.651Z,95262
2022-11-25T18:34:42.819Z,95259
2022-11-25T18:38:08.061Z,95271
2022-11-25T18:41:33.329Z,95276
2022-11-25T18:44:58.569Z,95277
2022-11-25T18:48:23.873Z,95278
2022-11-25T18:51:49.045Z,95281
2022-11-25T18:55:14.271Z,95283
2022-11-25T18:58:39.481Z,95285
2022-11-25T19:02:04.787Z,95286
2022-11-25T19:05:29.944Z,95293
2022-11-25T19:08:55.101Z,95296
2022-11-25T19:12:20.305Z,95295
2022-11-25T19:15:49.892Z,95302
2022-11-25T19:19:15.210Z,95315
2022-11-25T19:22:40.478Z,95320
2022-11-25T19:26:05.712Z,95317
2022-11-25T19:29:30.955Z,95329
2022-11-25T19:32:56.151Z,95332
2022-11-25T19:36:21.391Z,95345
2022-11-25T19:39:46.657Z,95349
2022-11-25T19:43:11.870Z,95348
2022-11-25T19:46:52.847Z,95358
2022-11-25T19:50:02.317Z,95361
2022-11-25T19:53:31.949Z,95361
2022-11-25T19:56:52.784Z,95371
2022-11-25T20:00:17.966Z,95380
2022-11-25T20:03:47.549Z,95382
2022-11-25T20:07:08.431Z,95390
2022-11-25T20:10:33.638Z,95389
2022-11-25T20:13:58.877Z,95396
2022-11-25T20:17:24.052Z,95394
2022-11-25T20:20:49.259Z,95401
2022-11-25T20:24:16.287Z,95408
2022-11-25T20:27:41.492Z,95410
2022-11-25T20:31:06.735Z,95421
2022-11-25T20:34:32.408Z,95431
2022-11-25T20:37:57.122Z,95435
2022-11-25T20:41:27.411Z,95438
2022-11-25T20:44:47.565Z,95447
2022-11-25T20:48:12.817Z,95449
2022-11-25T20:51:38.009Z,95456
2022-11-25T20:55:03.227Z,95456
2022-11-25T20:58:28.444Z,95458
2022-11-25T21:01:53.786Z,95463
2022-11-25T21:05:18.972Z,95466
2022-11-25T21:08:44.166Z,95467
2022-11-25T21:12:09.401Z,95469
2022-11-25T21:15:34.614Z,95475
2022-11-25T21:18:59.893Z,95481
2022-11-25T21:22:25.121Z,95485
2022-11-25T21:25:50.315Z,95495
2022-11-25T21:29:15.525Z,95497
2022-11-25T21:32:40.741Z,95494
2022-11-25T21:36:05.941Z,95497
2022-11-25T21:39:31.200Z,95498
2022-11-25T21:42:56.375Z,95500
2022-11-25T21:46:21.661Z,95500
2022-11-25T21:49:46.804Z,95506
2022-11-25T21:53:12.020Z,95514
2022-11-25T21:56:37.258Z,95524
2022-11-25T22:00:02.445Z,95523
2022-11-25T22:03:27.659Z,95532
2022-11-25T22:06:52.864Z,95530
2022-11-25T22:10:18.074Z,95529
2022-11-25T22:13:43.308Z,95530
2022-11-25T22:17:08.502Z,95538
2022-11-25T22:20:33.705Z,95541
2022-11-25T22:23:58.928Z,95554
2022-11-25T22:27:24.131Z,95557
2022-11-25T22:30:49.386Z,95561
2022-11-25T22:34:14.576Z,95566
2022-11-25T22:37:39.788Z,95576
2022-11-25T22:41:05.011Z,95582
2022-11-25T22:44:30.221Z,95579
2022-11-25T22:47:55.447Z,95586
2022-11-25T22:51:20.628Z,95590
2022-11-25T22:54:45.830Z,95590
2022-11-25T22:58:11.049Z,95591
2022-11-25T23:01:36.253Z,95603
2022-11-25T23:05:01.509Z,95609
2022-11-25T23:08:26.694Z,95605
2022-11-25T23:11:51.903Z,95598
2022-11-25T23:15:17.153Z,95598
2022-11-25T23:18:42.389Z,95596
2022-11-25T23:22:07.621Z,95607
2022-11-25T23:25:32.804Z,95605
2022-11-25T23:28:58.041Z,95606
2022-11-25T23:32:23.274Z,95606
2022-11-25T23:35:48.486Z,95607
2022-11-25T23:39:13.746Z,95607
2022-11-25T23:42:38.912Z,95614
2022-11-25T23:46:04.199Z,95609
2022-11-25T23:49:29.349Z,95610
2022-11-25T23:52:54.576Z,95617
2022-11-25T23:56:19.816Z,95617
2022-11-25T23:59:44.986Z,95618
